sensor_id;sensor_type;location;lat;lon;timestamp;pressure;altitude;pressure_sealevel;temperature;humidity
32761;BME280;19126;47.472;7.850;2023-04-20T00:00:15;96414.09;;;4.82;100.00
32761;BME280;19126;47.472;7.850;2023-04-20T00:02:43;96410.25;;;4.76;100.00
32761;BME280;19126;47.472;7.850;2023-04-20T00:05:10;96406.69;;;4.77;100.00
32761;BME280;19126;47.472;7.850;2023-04-20T00:07:40;96402.31;;;4.78;100.00
32761;BME280;19126;47.472;7.850;2023-04-20T00:10:09;96398.75;;;4.79;100.00
32761;BME280;19126;47.472;7.850;2023-04-20T00:12:36;96403.00;;;4.80;100.00
32761;BME280;19126;47.472;7.850;2023-04-20T00:15:06;96389.31;;;4.78;100.00
32761;BME280;19126;47.472;7.850;2023-04-20T00:17:33;96389.84;;;4.81;100.00
32761;BME280;19126;47.472;7.850;2023-04-20T00:20:01;96389.41;;;4.86;100.00
32761;BME280;19126;47.472;7.850;2023-04-20T00:22:30;96386.56;;;4.79;100.00
32761;BME280;19126;47.472;7.850;2023-04-20T00:24:59;96377.28;;;4.77;100.00
32761;BME280;19126;47.472;7.850;2023-04-20T00:27:27;96367.75;;;4.86;100.00
32761;BME280;19126;47.472;7.850;2023-04-20T00:29:54;96375.84;;;4.82;100.00
32761;BME280;19126;47.472;7.850;2023-04-20T00:32:23;96366.03;;;4.76;100.00
32761;BME280;19126;47.472;7.850;2023-04-20T00:34:52;96368.50;;;4.78;100.00
32761;BME280;19126;47.472;7.850;2023-04-20T00:37:20;96367.94;;;4.74;100.00
32761;BME280;19126;47.472;7.850;2023-04-20T00:39:50;96360.53;;;4.79;100.00
32761;BME280;19126;47.472;7.850;2023-04-20T00:42:19;96360.81;;;4.76;100.00
32761;BME280;19126;47.472;7.850;2023-04-20T00:44:46;96349.44;;;4.77;100.00
32761;BME280;19126;47.472;7.850;2023-04-20T00:47:15;96347.81;;;4.76;100.00
32761;BME280;19126;47.472;7.850;2023-04-20T00:49:42;96339.03;;;4.77;100.00
32761;BME280;19126;47.472;7.850;2023-04-20T00:52:10;96344.91;;;4.79;100.00
32761;BME280;19126;47.472;7.850;2023-04-20T00:54:40;96340.69;;;4.78;100.00
32761;BME280;19126;47.472;7.850;2023-04-20T00:57:11;96334.97;;;4.75;100.00
32761;BME280;19126;47.472;7.850;2023-04-20T00:59:40;96327.97;;;4.75;100.00
32761;BME280;19126;47.472;7.850;2023-04-20T01:02:08;96332.19;;;4.76;100.00
32761;BME280;19126;47.472;7.850;2023-04-20T01:04:35;96326.69;;;4.79;100.00
32761;BME280;19126;47.472;7.850;2023-04-20T01:07:05;96321.78;;;4.76;100.00
32761;BME280;19126;47.472;7.850;2023-04-20T01:09:33;96322.25;;;4.72;100.00
32761;BME280;19126;47.472;7.850;2023-04-20T01:12:00;96315.22;;;4.72;100.00
32761;BME280;19126;47.472;7.850;2023-04-20T01:14:27;96307.53;;;4.80;100.00
32761;BME280;19126;47.472;7.850;2023-04-20T01:16:56;96307.69;;;4.79;100.00
32761;BME280;19126;47.472;7.850;2023-04-20T01:19:26;96307.81;;;4.77;100.00
32761;BME280;19126;47.472;7.850;2023-04-20T01:21:53;96300.28;;;4.74;100.00
32761;BME280;19126;47.472;7.850;2023-04-20T01:24:22;96296.06;;;4.73;100.00
32761;BME280;19126;47.472;7.850;2023-04-20T01:26:51;96297.69;;;4.74;100.00
32761;BME280;19126;47.472;7.850;2023-04-20T01:29:20;96291.47;;;4.85;100.00
32761;BME280;19126;47.472;7.850;2023-04-20T01:31:47;96290.53;;;4.86;100.00
32761;BME280;19126;47.472;7.850;2023-04-20T01:34:15;96286.56;;;4.82;100.00
32761;BME280;19126;47.472;7.850;2023-04-20T01:36:43;96284.25;;;4.79;100.00
32761;BME280;19126;47.472;7.850;2023-04-20T01:39:11;96271.66;;;4.74;100.00
32761;BME280;19126;47.472;7.850;2023-04-20T01:41:40;96278.69;;;4.74;100.00
32761;BME280;19126;47.472;7.850;2023-04-20T01:44:07;96266.34;;;4.76;100.00
32761;BME280;19126;47.472;7.850;2023-04-20T01:46:36;96262.78;;;4.77;100.00
32761;BME280;19126;47.472;7.850;2023-04-20T01:49:04;96258.81;;;4.73;100.00
32761;BME280;19126;47.472;7.850;2023-04-20T01:51:32;96252.38;;;4.77;100.00
32761;BME280;19126;47.472;7.850;2023-04-20T01:54:00;96252.66;;;4.74;100.00
32761;BME280;19126;47.472;7.850;2023-04-20T01:56:27;96255.09;;;4.75;100.00
32761;BME280;19126;47.472;7.850;2023-04-20T01:58:57;96252.50;;;4.75;100.00
32761;BME280;19126;47.472;7.850;2023-04-20T02:01:24;96247.28;;;4.75;100.00
32761;BME280;19126;47.472;7.850;2023-04-20T02:03:51;96239.09;;;4.70;100.00
32761;BME280;19126;47.472;7.850;2023-04-20T02:06:19;96238.44;;;4.68;100.00
32761;BME280;19126;47.472;7.850;2023-04-20T02:08:48;96228.03;;;4.68;100.00
32761;BME280;19126;47.472;7.850;2023-04-20T02:11:15;96229.53;;;4.71;100.00
32761;BME280;19126;47.472;7.850;2023-04-20T02:13:44;96224.91;;;4.64;100.00
32761;BME280;19126;47.472;7.850;2023-04-20T02:16:13;96224.91;;;4.64;100.00
32761;BME280;19126;47.472;7.850;2023-04-20T02:18:40;96219.72;;;4.64;100.00
32761;BME280;19126;47.472;7.850;2023-04-20T02:21:10;96226.69;;;4.64;100.00
32761;BME280;19126;47.472;7.850;2023-04-20T02:23:37;96212.03;;;4.63;100.00
32761;BME280;19126;47.472;7.850;2023-04-20T02:26:05;96215.59;;;4.62;100.00
32761;BME280;19126;47.472;7.850;2023-04-20T02:28:34;96209.72;;;4.60;100.00
32761;BME280;19126;47.472;7.850;2023-04-20T02:31:02;96214.13;;;4.59;100.00
32761;BME280;19126;47.472;7.850;2023-04-20T02:33:31;96210.03;;;4.57;100.00
32761;BME280;19126;47.472;7.850;2023-04-20T02:35:58;96212.34;;;4.60;100.00
32761;BME280;19126;47.472;7.850;2023-04-20T02:38:26;96199.88;;;4.63;100.00
32761;BME280;19126;47.472;7.850;2023-04-20T02:40:53;96201.13;;;4.59;100.00
32761;BME280;19126;47.472;7.850;2023-04-20T02:43:20;96201.63;;;4.63;100.00
32761;BME280;19126;47.472;7.850;2023-04-20T02:45:47;96193.16;;;4.61;100.00
32761;BME280;19126;47.472;7.850;2023-04-20T02:48:15;96189.09;;;4.58;100.00
32761;BME280;19126;47.472;7.850;2023-04-20T02:50:44;96188.53;;;4.54;100.00
32761;BME280;19126;47.472;7.850;2023-04-20T02:53:11;96192.78;;;4.55;100.00
32761;BME280;19126;47.472;7.850;2023-04-20T02:55:38;96184.84;;;4.57;100.00
32761;BME280;19126;47.472;7.850;2023-04-20T02:58:06;96183.88;;;4.58;100.00
32761;BME280;19126;47.472;7.850;2023-04-20T03:00:33;96183.34;;;4.54;100.00
32761;BME280;19126;47.472;7.850;2023-04-20T03:03:00;96185.94;;;4.54;100.00
32761;BME280;19126;47.472;7.850;2023-04-20T03:05:30;96183.34;;;4.54;100.00
32761;BME280;19126;47.472;7.850;2023-04-20T03:07:59;96184.69;;;4.59;100.00
32761;BME280;19126;47.472;7.850;2023-04-20T03:10:31;96173.78;;;4.55;100.00
32761;BME280;19126;47.472;7.850;2023-04-20T03:12:59;96177.84;;;4.58;100.00
32761;BME280;19126;47.472;7.850;2023-04-20T03:15:26;96165.97;;;4.55;100.00
32761;BME280;19126;47.472;7.850;2023-04-20T03:17:54;96165.59;;;4.50;100.00
32761;BME280;19126;47.472;7.850;2023-04-20T03:20:21;96166.41;;;4.50;100.00
32761;BME280;19126;47.472;7.850;2023-04-20T03:22:49;96160.53;;;4.48;100.00
32761;BME280;19126;47.472;7.850;2023-04-20T03:25:18;96167.66;;;4.46;100.00
32761;BME280;19126;47.472;7.850;2023-04-20T03:27:45;96160.53;;;4.48;100.00
32761;BME280;19126;47.472;7.850;2023-04-20T03:30:13;96159.84;;;4.46;100.00
32761;BME280;19126;47.472;7.850;2023-04-20T03:32:41;96159.41;;;4.51;100.00
32761;BME280;19126;47.472;7.850;2023-04-20T03:35:08;96161.50;;;4.47;100.00
32761;BME280;19126;47.472;7.850;2023-04-20T03:37:37;96155.47;;;4.47;100.00
32761;BME280;19126;47.472;7.850;2023-04-20T03:40:08;96151.63;;;4.51;100.00
32761;BME280;19126;47.472;7.850;2023-04-20T03:42:37;96147.16;;;4.43;100.00
32761;BME280;19126;47.472;7.850;2023-04-20T03:45:06;96150.88;;;4.40;100.00
32761;BME280;19126;47.472;7.850;2023-04-20T03:47:34;96150.03;;;4.40;100.00
32761;BME280;19126;47.472;7.850;2023-04-20T03:50:01;96149.38;;;4.38;100.00
32761;BME280;19126;47.472;7.850;2023-04-20T03:52:29;96153.91;;;4.36;100.00
32761;BME280;19126;47.472;7.850;2023-04-20T03:54:56;96166.75;;;4.37;100.00
32761;BME280;19126;47.472;7.850;2023-04-20T03:57:24;96155.53;;;4.37;100.00
32761;BME280;19126;47.472;7.850;2023-04-20T03:59:52;96144.63;;;4.33;100.00
32761;BME280;19126;47.472;7.850;2023-04-20T04:02:20;96154.06;;;4.34;100.00
32761;BME280;19126;47.472;7.850;2023-04-20T04:04:48;96147.06;;;4.35;100.00
32761;BME280;19126;47.472;7.850;2023-04-20T04:07:15;96148.28;;;4.40;100.00
32761;BME280;19126;47.472;7.850;2023-04-20T04:09:43;96147.59;;;4.38;100.00
32761;BME280;19126;47.472;7.850;2023-04-20T04:12:10;96141.13;;;4.43;100.00
32761;BME280;19126;47.472;7.850;2023-04-20T04:14:37;96144.16;;;4.38;100.00
32761;BME280;19126;47.472;7.850;2023-04-20T04:17:06;96143.19;;;4.39;100.00
32761;BME280;19126;47.472;7.850;2023-04-20T04:19:34;96134.72;;;4.37;100.00
32761;BME280;19126;47.472;7.850;2023-04-20T04:22:01;96137.88;;;4.40;100.00
32761;BME280;19126;47.472;7.850;2023-04-20T04:24:28;96132.41;;;4.34;100.00
32761;BME280;19126;47.472;7.850;2023-04-20T04:26:56;96137.63;;;4.34;100.00
32761;BME280;19126;47.472;7.850;2023-04-20T04:29:24;96129.81;;;4.34;100.00
32761;BME280;19126;47.472;7.850;2023-04-20T04:31:52;96132.78;;;4.39;100.00
32761;BME280;19126;47.472;7.850;2023-04-20T04:34:23;96125.81;;;4.39;100.00
32761;BME280;19126;47.472;7.850;2023-04-20T04:36:57;96137.63;;;4.34;100.00
32761;BME280;19126;47.472;7.850;2023-04-20T04:39:28;96132.88;;;4.29;100.00
32761;BME280;19126;47.472;7.850;2023-04-20T04:41:57;96130.13;;;4.31;100.00
32761;BME280;19126;47.472;7.850;2023-04-20T04:44:25;96131.09;;;4.30;98.83
32761;BME280;19126;47.472;7.850;2023-04-20T04:46:53;96130.41;;;4.28;98.62
32761;BME280;19126;47.472;7.850;2023-04-20T04:49:22;96133.16;;;4.26;98.30
32761;BME280;19126;47.472;7.850;2023-04-20T04:51:54;96135.59;;;4.28;98.98
32761;BME280;19126;47.472;7.850;2023-04-20T04:54:21;96131.25;;;4.28;98.85
32761;BME280;19126;47.472;7.850;2023-04-20T04:56:49;96133.59;;;4.21;99.81
32761;BME280;19126;47.472;7.850;2023-04-20T04:59:16;96128.25;;;4.23;99.65
32761;BME280;19126;47.472;7.850;2023-04-20T05:01:46;96129.75;;;4.25;99.32
32761;BME280;19126;47.472;7.850;2023-04-20T05:04:14;96130.03;;;4.22;99.77
32761;BME280;19126;47.472;7.850;2023-04-20T05:06:42;96135.78;;;4.26;99.00
32761;BME280;19126;47.472;7.850;2023-04-20T05:09:10;96130.19;;;4.39;100.00
32761;BME280;19126;47.472;7.850;2023-04-20T05:11:37;96135.31;;;4.31;100.00
32761;BME280;19126;47.472;7.850;2023-04-20T05:14:04;96136.56;;;4.27;100.00
32761;BME280;19126;47.472;7.850;2023-04-20T05:16:32;96141.09;;;4.24;100.00
32761;BME280;19126;47.472;7.850;2023-04-20T05:18:59;96153.00;;;4.27;100.00
32761;BME280;19126;47.472;7.850;2023-04-20T05:21:28;96149.94;;;4.32;100.00
32761;BME280;19126;47.472;7.850;2023-04-20T05:23:57;96150.53;;;4.25;100.00
32761;BME280;19126;47.472;7.850;2023-04-20T05:26:24;96147.44;;;4.22;100.00
32761;BME280;19126;47.472;7.850;2023-04-20T05:28:51;96158.78;;;4.21;100.00
32761;BME280;19126;47.472;7.850;2023-04-20T05:31:19;96158.13;;;4.19;100.00
32761;BME280;19126;47.472;7.850;2023-04-20T05:33:46;96161.81;;;4.16;100.00
32761;BME280;19126;47.472;7.850;2023-04-20T05:36:13;96156.03;;;4.22;100.00
32761;BME280;19126;47.472;7.850;2023-04-20T05:38:41;96157.28;;;4.18;100.00
32761;BME280;19126;47.472;7.850;2023-04-20T05:41:09;96154.56;;;4.20;100.00
32761;BME280;19126;47.472;7.850;2023-04-20T05:43:37;96154.19;;;4.15;100.00
32761;BME280;19126;47.472;7.850;2023-04-20T05:46:04;96144.78;;;4.04;100.00
32761;BME280;19126;47.472;7.850;2023-04-20T05:48:32;96147.53;;;4.02;100.00
32761;BME280;19126;47.472;7.850;2023-04-20T05:50:59;96151.66;;;3.95;100.00
32761;BME280;19126;47.472;7.850;2023-04-20T05:53:26;96148.53;;;3.91;100.00
32761;BME280;19126;47.472;7.850;2023-04-20T05:55:55;96153.84;;;3.90;100.00
32761;BME280;19126;47.472;7.850;2023-04-20T05:58:24;96152.09;;;3.90;100.00
32761;BME280;19126;47.472;7.850;2023-04-20T06:00:52;96150.88;;;3.85;100.00
32761;BME280;19126;47.472;7.850;2023-04-20T06:03:19;96156.31;;;3.91;100.00
32761;BME280;19126;47.472;7.850;2023-04-20T06:05:47;96150.28;;;3.91;100.00
32761;BME280;19126;47.472;7.850;2023-04-20T06:08:14;96156.31;;;3.91;100.00
32761;BME280;19126;47.472;7.850;2023-04-20T06:10:42;96151.50;;;3.96;100.00
32761;BME280;19126;47.472;7.850;2023-04-20T06:13:10;96156.06;;;3.85;100.00
32761;BME280;19126;47.472;7.850;2023-04-20T06:15:38;96158.25;;;3.89;100.00
32761;BME280;19126;47.472;7.850;2023-04-20T06:18:06;96162.38;;;3.82;100.00
32761;BME280;19126;47.472;7.850;2023-04-20T06:20:33;96170.19;;;3.72;99.41
32761;BME280;19126;47.472;7.850;2023-04-20T06:23:00;96167.38;;;3.65;99.16
32761;BME280;19126;47.472;7.850;2023-04-20T06:25:28;96167.50;;;3.64;96.47
32761;BME280;19126;47.472;7.850;2023-04-20T06:27:55;96167.66;;;3.62;95.60
32761;BME280;19126;47.472;7.850;2023-04-20T06:30:22;96171.91;;;3.54;96.02
32761;BME280;19126;47.472;7.850;2023-04-20T06:32:51;96176.19;;;3.45;95.39
32761;BME280;19126;47.472;7.850;2023-04-20T06:35:19;96173.97;;;3.50;95.13
32761;BME280;19126;47.472;7.850;2023-04-20T06:37:47;96174.25;;;3.47;97.61
32761;BME280;19126;47.472;7.850;2023-04-20T06:40:14;96161.84;;;3.31;97.50
32761;BME280;19126;47.472;7.850;2023-04-20T06:42:42;96167.47;;;3.26;97.99
32761;BME280;19126;47.472;7.850;2023-04-20T06:45:10;96177.72;;;3.18;96.68
32761;BME280;19126;47.472;7.850;2023-04-20T06:47:38;96173.22;;;3.10;96.05
32761;BME280;19126;47.472;7.850;2023-04-20T06:50:08;96178.69;;;3.17;94.56
32761;BME280;19126;47.472;7.850;2023-04-20T06:52:37;96172.81;;;3.15;92.90
32761;BME280;19126;47.472;7.850;2023-04-20T06:55:05;96174.19;;;3.09;93.61
32761;BME280;19126;47.472;7.850;2023-04-20T06:57:33;96183.19;;;3.05;92.88
32761;BME280;19126;47.472;7.850;2023-04-20T07:00:02;96183.22;;;2.85;93.43
32761;BME280;19126;47.472;7.850;2023-04-20T07:02:30;96185.25;;;2.72;94.27
32761;BME280;19126;47.472;7.850;2023-04-20T07:05:09;96174.06;;;2.71;94.50
32761;BME280;19126;47.472;7.850;2023-04-20T07:07:39;96182.63;;;2.62;97.24
32761;BME280;19126;47.472;7.850;2023-04-20T07:10:09;96175.00;;;2.60;95.87
32761;BME280;19126;47.472;7.850;2023-04-20T07:12:37;96183.44;;;2.53;94.42
32761;BME280;19126;47.472;7.850;2023-04-20T07:15:07;96176.78;;;2.50;94.71
32761;BME280;19126;47.472;7.850;2023-04-20T07:17:34;96169.13;;;2.39;95.97
32761;BME280;19126;47.472;7.850;2023-04-20T07:20:02;96172.25;;;2.32;95.25
32761;BME280;19126;47.472;7.850;2023-04-20T07:22:35;96179.19;;;2.32;94.39
32761;BME280;19126;47.472;7.850;2023-04-20T07:25:05;96173.84;;;2.24;92.03
32761;BME280;19126;47.472;7.850;2023-04-20T07:27:34;96179.19;;;2.22;91.05
32761;BME280;19126;47.472;7.850;2023-04-20T07:30:02;96180.56;;;2.26;90.77
32761;BME280;19126;47.472;7.850;2023-04-20T07:32:31;96181.88;;;2.20;91.35
32761;BME280;19126;47.472;7.850;2023-04-20T07:34:58;96176.03;;;2.18;90.68
32761;BME280;19126;47.472;7.850;2023-04-20T07:37:26;96177.66;;;2.19;90.25
32761;BME280;19126;47.472;7.850;2023-04-20T07:39:55;96175.84;;;2.10;91.70
32761;BME280;19126;47.472;7.850;2023-04-20T07:42:22;96188.81;;;2.10;91.01
32761;BME280;19126;47.472;7.850;2023-04-20T07:44:49;96184.47;;;2.11;89.61
32761;BME280;19126;47.472;7.850;2023-04-20T07:47:17;96180.25;;;2.10;89.60
32761;BME280;19126;47.472;7.850;2023-04-20T07:49:45;96170.94;;;2.07;88.59
32761;BME280;19126;47.472;7.850;2023-04-20T07:52:12;96170.94;;;2.07;88.79
32761;BME280;19126;47.472;7.850;2023-04-20T07:54:40;96176.56;;;2.12;88.69
32761;BME280;19126;47.472;7.850;2023-04-20T07:57:11;96175.75;;;2.12;89.10
32761;BME280;19126;47.472;7.850;2023-04-20T07:59:38;96174.75;;;2.03;90.52
32761;BME280;19126;47.472;7.850;2023-04-20T08:02:08;96171.09;;;2.05;89.71
32761;BME280;19126;47.472;7.850;2023-04-20T08:04:36;96167.28;;;2.10;89.38
32761;BME280;19126;47.472;7.850;2023-04-20T08:07:03;96172.59;;;2.08;88.87
32761;BME280;19126;47.472;7.850;2023-04-20T08:09:30;96170.13;;;2.07;88.94
32761;BME280;19126;47.472;7.850;2023-04-20T08:11:58;96166.88;;;2.14;88.84
32761;BME280;19126;47.472;7.850;2023-04-20T08:14:27;96163.06;;;2.18;88.97
32761;BME280;19126;47.472;7.850;2023-04-20T08:16:55;96165.13;;;2.15;89.33
32761;BME280;19126;47.472;7.850;2023-04-20T08:19:22;96164.44;;;2.13;90.72
32761;BME280;19126;47.472;7.850;2023-04-20T08:21:50;96156.63;;;2.03;89.79
32761;BME280;19126;47.472;7.850;2023-04-20T08:24:19;96150.63;;;2.02;88.25
32761;BME280;19126;47.472;7.850;2023-04-20T08:26:46;96154.44;;;2.08;86.72
32761;BME280;19126;47.472;7.850;2023-04-20T08:29:14;96142.34;;;2.18;85.66
32761;BME280;19126;47.472;7.850;2023-04-20T08:31:43;96155.97;;;2.20;87.93
32761;BME280;19126;47.472;7.850;2023-04-20T08:34:11;96146.44;;;2.21;88.21
32761;BME280;19126;47.472;7.850;2023-04-20T08:36:38;96146.72;;;2.28;87.83
32761;BME280;19126;47.472;7.850;2023-04-20T08:39:08;96145.38;;;2.33;86.05
32761;BME280;19126;47.472;7.850;2023-04-20T08:41:35;96149.19;;;2.39;85.31
32761;BME280;19126;47.472;7.850;2023-04-20T08:44:03;96141.97;;;2.43;84.84
32761;BME280;19126;47.472;7.850;2023-04-20T08:46:31;96141.97;;;2.53;83.96
32761;BME280;19126;47.472;7.850;2023-04-20T08:49:00;96144.97;;;2.58;84.88
32761;BME280;19126;47.472;7.850;2023-04-20T08:51:28;96146.09;;;2.65;85.06
32761;BME280;19126;47.472;7.850;2023-04-20T08:54:02;96144.56;;;2.62;89.42
32761;BME280;19126;47.472;7.850;2023-04-20T08:56:35;96147.16;;;2.62;90.75
32761;BME280;19126;47.472;7.850;2023-04-20T08:59:04;96149.09;;;2.70;91.59
32761;BME280;19126;47.472;7.850;2023-04-20T09:01:38;96144.41;;;2.64;93.48
32761;BME280;19126;47.472;7.850;2023-04-20T09:04:17;96147.16;;;2.62;94.07
32761;BME280;19126;47.472;7.850;2023-04-20T09:06:45;96141.00;;;2.54;94.99
32761;BME280;19126;47.472;7.850;2023-04-20T09:09:12;96144.56;;;2.53;96.36
32761;BME280;19126;47.472;7.850;2023-04-20T09:11:40;96134.59;;;2.48;95.73
32761;BME280;19126;47.472;7.850;2023-04-20T09:14:09;96133.38;;;2.52;96.10
32761;BME280;19126;47.472;7.850;2023-04-20T09:16:38;96134.19;;;2.53;97.48
32761;BME280;19126;47.472;7.850;2023-04-20T09:19:21;96136.38;;;2.47;96.89
32761;BME280;19126;47.472;7.850;2023-04-20T09:21:50;96141.44;;;2.49;96.74
32761;BME280;19126;47.472;7.850;2023-04-20T09:24:20;96139.94;;;2.56;93.78
32761;BME280;19126;47.472;7.850;2023-04-20T09:26:47;96145.81;;;2.68;93.10
32761;BME280;19126;47.472;7.850;2023-04-20T09:29:20;96144.97;;;2.68;94.34
32761;BME280;19126;47.472;7.850;2023-04-20T09:31:48;96147.00;;;2.64;93.88
32761;BME280;19126;47.472;7.850;2023-04-20T09:34:18;96147.47;;;2.69;92.95
32761;BME280;19126;47.472;7.850;2023-04-20T09:36:47;96144.84;;;2.69;93.23
32761;BME280;19126;47.472;7.850;2023-04-20T09:39:21;96136.13;;;2.70;92.32
32761;BME280;19126;47.472;7.850;2023-04-20T09:41:50;96139.94;;;2.76;90.29
32761;BME280;19126;47.472;7.850;2023-04-20T09:44:18;96148.13;;;2.81;88.87
32761;BME280;19126;47.472;7.850;2023-04-20T09:46:46;96152.09;;;2.75;91.77
32761;BME280;19126;47.472;7.850;2023-04-20T09:49:13;96152.78;;;2.77;93.17
32761;BME280;19126;47.472;7.850;2023-04-20T09:51:43;96161.91;;;2.82;92.20
32761;BME280;19126;47.472;7.850;2023-04-20T09:54:12;96161.09;;;2.81;90.65
32761;BME280;19126;47.472;7.850;2023-04-20T09:56:40;96164.38;;;2.83;89.71
32761;BME280;19126;47.472;7.850;2023-04-20T09:59:08;96175.00;;;2.80;89.80
32761;BME280;19126;47.472;7.850;2023-04-20T10:01:35;96172.56;;;2.78;88.76
32761;BME280;19126;47.472;7.850;2023-04-20T10:04:08;96165.06;;;2.75;87.92
32761;BME280;19126;47.472;7.850;2023-04-20T10:06:36;96171.75;;;2.78;85.55
32761;BME280;19126;47.472;7.850;2023-04-20T10:09:19;96168.75;;;2.83;84.58
32761;BME280;19126;47.472;7.850;2023-04-20T10:11:48;96149.63;;;2.84;85.17
32761;BME280;19126;47.472;7.850;2023-04-20T10:14:17;96141.56;;;2.97;82.42
32761;BME280;19126;47.472;7.850;2023-04-20T10:16:57;96152.06;;;3.05;82.81
32761;BME280;19126;47.472;7.850;2023-04-20T10:19:36;96147.66;;;3.15;83.04
32761;BME280;19126;47.472;7.850;2023-04-20T10:22:05;96138.75;;;3.28;83.12
32761;BME280;19126;47.472;7.850;2023-04-20T10:24:34;96147.22;;;3.40;81.27
32761;BME280;19126;47.472;7.850;2023-04-20T10:27:03;96144.72;;;3.48;81.33
32761;BME280;19126;47.472;7.850;2023-04-20T10:29:41;96159.06;;;3.52;81.35
32761;BME280;19126;47.472;7.850;2023-04-20T10:32:21;96145.69;;;3.47;84.33
32761;BME280;19126;47.472;7.850;2023-04-20T10:35:01;96136.66;;;3.51;83.07
32761;BME280;19126;47.472;7.850;2023-04-20T10:37:28;96130.41;;;3.44;86.38
32761;BME280;19126;47.472;7.850;2023-04-20T10:39:58;96129.78;;;3.60;85.29
32761;BME280;19126;47.472;7.850;2023-04-20T10:42:26;96128.25;;;3.67;86.68
32761;BME280;19126;47.472;7.850;2023-04-20T10:44:54;96120.56;;;3.75;88.81
32761;BME280;19126;47.472;7.850;2023-04-20T10:47:27;96123.59;;;3.99;86.66
32761;BME280;19126;47.472;7.850;2023-04-20T10:50:05;96128.09;;;4.24;85.65
32761;BME280;19126;47.472;7.850;2023-04-20T10:52:35;96129.91;;;4.42;85.86
32761;BME280;19126;47.472;7.850;2023-04-20T10:55:05;96129.47;;;4.47;90.22
32761;BME280;19126;47.472;7.850;2023-04-20T10:57:34;96129.56;;;4.55;90.75
32761;BME280;19126;47.472;7.850;2023-04-20T11:00:14;96124.06;;;4.58;90.54
32761;BME280;19126;47.472;7.850;2023-04-20T11:02:48;96121.06;;;4.53;94.86
32761;BME280;19126;47.472;7.850;2023-04-20T11:05:17;96107.38;;;4.33;100.00
32761;BME280;19126;47.472;7.850;2023-04-20T11:07:51;96109.69;;;4.36;100.00
32761;BME280;19126;47.472;7.850;2023-04-20T11:10:23;96096.84;;;4.34;100.00
32761;BME280;19126;47.472;7.850;2023-04-20T11:12:51;96098.84;;;4.40;100.00
32761;BME280;19126;47.472;7.850;2023-04-20T11:15:18;96099.06;;;4.47;100.00
32761;BME280;19126;47.472;7.850;2023-04-20T11:17:47;96102.41;;;4.58;100.00
32761;BME280;19126;47.472;7.850;2023-04-20T11:20:14;96101.97;;;4.44;100.00
32761;BME280;19126;47.472;7.850;2023-04-20T11:22:55;96103.75;;;4.44;100.00
32761;BME280;19126;47.472;7.850;2023-04-20T11:25:24;96098.41;;;4.45;100.00
32761;BME280;19126;47.472;7.850;2023-04-20T11:27:52;96093.72;;;4.49;100.00
32761;BME280;19126;47.472;7.850;2023-04-20T11:30:38;96077.38;;;4.57;100.00
32761;BME280;19126;47.472;7.850;2023-04-20T11:33:06;96082.00;;;4.45;100.00
32761;BME280;19126;47.472;7.850;2023-04-20T11:35:35;96080.72;;;4.31;100.00
32761;BME280;19126;47.472;7.850;2023-04-20T11:38:03;96079.53;;;4.25;100.00
32761;BME280;19126;47.472;7.850;2023-04-20T11:40:32;96083.56;;;4.37;100.00
32761;BME280;19126;47.472;7.850;2023-04-20T11:42:59;96077.59;;;4.45;100.00
32761;BME280;19126;47.472;7.850;2023-04-20T11:45:29;96086.28;;;4.54;100.00
32761;BME280;19126;47.472;7.850;2023-04-20T11:47:57;96079.47;;;4.53;100.00
32761;BME280;19126;47.472;7.850;2023-04-20T11:50:25;96086.00;;;4.57;100.00
32761;BME280;19126;47.472;7.850;2023-04-20T11:52:52;96083.47;;;4.65;100.00
32761;BME280;19126;47.472;7.850;2023-04-20T11:55:19;96091.75;;;4.87;100.00
32761;BME280;19126;47.472;7.850;2023-04-20T11:57:48;96091.81;;;4.95;100.00
32761;BME280;19126;47.472;7.850;2023-04-20T12:00:17;96080.13;;;4.99;100.00
32761;BME280;19126;47.472;7.850;2023-04-20T12:02:44;96077.53;;;4.99;100.00
32761;BME280;19126;47.472;7.850;2023-04-20T12:05:11;96083.22;;;5.03;100.00
32761;BME280;19126;47.472;7.850;2023-04-20T12:07:39;96083.47;;;4.92;100.00
32761;BME280;19126;47.472;7.850;2023-04-20T12:10:08;96086.25;;;4.90;100.00
32761;BME280;19126;47.472;7.850;2023-04-20T12:12:35;96080.94;;;5.00;100.00
32761;BME280;19126;47.472;7.850;2023-04-20T12:15:07;96078.84;;;5.04;100.00
32761;BME280;19126;47.472;7.850;2023-04-20T12:17:34;96081.75;;;5.01;100.00
32761;BME280;19126;47.472;7.850;2023-04-20T12:20:02;96082.94;;;5.06;100.00
32761;BME280;19126;47.472;7.850;2023-04-20T12:22:33;96088.44;;;5.03;100.00
32761;BME280;19126;47.472;7.850;2023-04-20T12:25:01;96079.00;;;5.02;100.00
32761;BME280;19126;47.472;7.850;2023-04-20T12:27:29;96074.44;;;5.04;100.00
32761;BME280;19126;47.472;7.850;2023-04-20T12:29:56;96072.38;;;5.08;100.00
32761;BME280;19126;47.472;7.850;2023-04-20T12:32:25;96068.84;;;5.17;100.00
32761;BME280;19126;47.472;7.850;2023-04-20T12:34:52;96078.66;;;5.23;98.67
32761;BME280;19126;47.472;7.850;2023-04-20T12:37:19;96076.00;;;5.15;97.85
32761;BME280;19126;47.472;7.850;2023-04-20T12:39:47;96076.00;;;5.15;97.67
32761;BME280;19126;47.472;7.850;2023-04-20T12:42:14;96069.16;;;5.14;97.06
32761;BME280;19126;47.472;7.850;2023-04-20T12:44:41;96072.56;;;5.14;95.50
32761;BME280;19126;47.472;7.850;2023-04-20T12:47:08;96074.06;;;5.17;92.10
32761;BME280;19126;47.472;7.850;2023-04-20T12:49:37;96066.59;;;5.22;91.41
32761;BME280;19126;47.472;7.850;2023-04-20T12:52:07;96070.66;;;5.25;91.15
32761;BME280;19126;47.472;7.850;2023-04-20T12:54:34;96074.25;;;5.24;89.84
32761;BME280;19126;47.472;7.850;2023-04-20T12:57:02;96082.72;;;5.26;90.39
32761;BME280;19126;47.472;7.850;2023-04-20T12:59:29;96083.84;;;5.23;88.84
32761;BME280;19126;47.472;7.850;2023-04-20T13:01:57;96079.63;;;5.22;89.20
32761;BME280;19126;47.472;7.850;2023-04-20T13:04:24;96081.47;;;5.30;89.35
32761;BME280;19126;47.472;7.850;2023-04-20T13:06:53;96080.84;;;5.36;89.02
32761;BME280;19126;47.472;7.850;2023-04-20T13:09:20;96079.72;;;5.39;91.46
32761;BME280;19126;47.472;7.850;2023-04-20T13:11:51;96078.28;;;5.45;89.15